Terminal Aerodrome Forecast
Issued by NWS

Home | Current Version | Previous Version | Text Only | Print | Product List | Glossary On
Versions: 1 2 3 4 5 6 7 8 9 10 11 12 13 14 15 16 17 18 19 20 21 22 23 24 25 26 27 28
719
FTUS41 KBUF 220245 AAA
TAFJHW
TAF AMD
KJHW 220245Z 2203/2224 VRB03KT P6SM SCT250
     FM220600 VRB03KT 5SM BR BKN250
     FM221100 16005KT P6SM OVC100
     FM221600 17005KT 6SM -SHRA VCTS OVC035CB
      AMD LTD TO CLD VIS AND WIND=

USA.gov is the U.S. government's official web portal to all federal, state and local government web resources and services.